LGKOLGZA

Guest
Details From LGKO - KOS
To LGZA - Dionysios_Solomos
Flight Number -
Tags generated
Created
Modified
Stats Distance 308 nm / 570 km
Max Altitude 34,000 ft / 10,363 m
Waypoints 6
Social Downloads 1
Likes 0
Share VATSIM

Download

Looking for another format? Having issues loading an existing format? Contact us
Advertisement - Login to hide

Notes

Basic altitude profile: - Ascent Rate: 2500ft/min - Ascent Speed: 250kts - Cruise Altitude: 35000ft - Cruise Speed: 420kts - Descent Rate: 1500ft/min - Descent Speed: 250kts

Route

LGKO NETIS UM601 TRL LGZA

ID Type Via Altitude Latitude Longitude Leg Dist Tot Dist Heading (true) Name
O LGKO APT - 0 ft / 0 m 36.79440˚ 27.09076˚ - 0 nm - KOS
NETIS FIX - 34,000 ft / 10,363 m 36.70278˚ 24.96361˚ 102 nm 102 nm 268° / 266° -
MIL VOR UM601 (AWY-HI) 34,000 ft / 10,363 m 36.74752˚ 24.51945˚ 21 nm 124 nm 277° / 277° MILOS VOR-DME
ALANI FIX UM601 (AWY-HI) 32,500 ft / 9,906 m 36.91111˚ 23.99167˚ 27 nm 151 nm 291° / 291° -
TRL VOR UM601 (AWY-HI) 24,500 ft / 7,468 m 37.40275˚ 22.33963˚ 84 nm 235 nm 291° / 290° TRIPOLIS VOR-DME
O LGZA APT - 0 ft / 0 m 37.75123˚ 20.88411˚ 72 nm 308 nm 287° / 286° Dionysios_Solomos

Altitude Profile

Advertisement - Login to hide

Weather


0- 5 10 15 20 25 30 35+ Temperature / ° C

Clouds and Precipitation
Forecast for 2018-05-27 12:00 UTC. Updated an hour ago

Ground ~20,000 ft ~40,000 ft Winds

LGKO

Details ICAO LGKO (KGS)
Name KOS
Region Greece
Timezone Europe/Athens (UTC+3.0)
Stats Elevation 412 ft / 126 m (AMSL)
Location 36.794403° 27.090764°
Runways 1
Magnetic Variation 4.766° E

METAR

LGKO 271220Z 23005KT 190V310 9999 FEW018 SCT025 25/15 Q1012

Decode

TAF

TAF LGKO 271100Z 2712/2812 VRB05KT 9999 FEW018 SCT025 PROB30 TEMPO 2712/2716 5000 RA SCT015 BKN025 PROB30 TEMPO 2712/2715 4000 TSRA SCT010 FEW018CB BKN020 BECMG 2712/2714 28010KT BECMG 2716/2718 34015KT

Decode

Departure Runways

ID Width Length Bearing (true) Bearing (mag) Surface Threshold Offset Overrun Length
14 148 ft / 45 m 7,923 ft / 2,415 m 148.29° 143.52° Asphalt 0 ft / 0 m 240 ft / 73 m
32 148 ft / 45 m 7,923 ft / 2,415 m 328.30° 323.53° Asphalt 0 ft / 0 m 205 ft / 62 m

LGZA

Details ICAO LGZA (ZTH)
Name Dionysios Solomos
Region Greece
Timezone Europe/Athens (UTC+3.0)
Stats Elevation 14 ft / 4 m (AMSL)
Location 37.751230° 20.884106°
Runways 1
Magnetic Variation 4.116° E

METAR

LGZA 271220Z 33008KT 9999 FEW030 31/19 Q1016

Decode

TAF

Not found

Destination Runways

ID Width Length Bearing (true) Bearing (mag) Surface Threshold Offset Overrun Length
16 148 ft / 45 m 7,315 ft / 2,230 m 163.49° 159.37° Asphalt 715 ft / 218 m 112 ft / 34 m
34 148 ft / 45 m 7,315 ft / 2,230 m 343.49° 339.37° Asphalt 728 ft / 222 m 135 ft / 41 m

Popular Alternatives